Time;durP1;ratioP1;P1;durP2;ratioP2;P2;SDS_P1;SDS_P2;PMS_P1;PMS_P2;Temp;Humidity;BMP_temperature;BMP_pressure;BME280_temperature;BME280_humidity;BME280_pressure;Samples;Min_cycle;Max_cycle;Signal;HPM_P1;HPM_P2
2023/11/04 00:02:23;;;;;;;0.00;0.00;;;;;;;8.56;100.00;98351.06;5056436;28;20064;-38
2023/11/04 00:04:48;;;;;;;0.00;0.00;;;;;;;8.62;100.00;98345.84;5051958;28;20045;-40
2023/11/04 00:07:15;;;;;;;0.00;0.00;;;;;;;8.59;100.00;98365.06;5064647;28;20027;-39
2023/11/04 00:09:41;;;;;;;0.00;0.00;;;;;;;8.59;100.00;98349.00;5072046;28;20020;-39
2023/11/04 00:12:07;;;;;;;0.00;0.00;;;;;;;8.60;100.00;98339.88;5071451;28;20020;-38
2023/11/04 00:14:32;;;;;;;0.00;0.00;;;;;;;8.63;100.00;98339.41;5072683;28;20386;-39
2023/11/04 00:16:58;;;;;;;0.00;0.00;;;;;;;8.71;100.00;98341.75;5064014;28;20355;-39
2023/11/04 00:19:23;;;;;;;0.00;0.00;;;;;;;8.63;100.00;98334.06;5051654;28;20104;-38
2023/11/04 00:21:49;;;;;;;0.00;0.00;;;;;;;8.63;100.00;98350.16;5063433;28;20085;-38
2023/11/04 00:24:14;;;;;;;0.00;0.00;;;;;;;8.61;100.00;98342.34;5071785;28;20182;-40
2023/11/04 00:26:39;;;;;;;0.00;0.00;;;;;;;8.64;100.00;98330.34;5069079;28;20066;-39
2023/11/04 00:29:05;;;;;;;0.00;0.00;;;;;;;8.70;100.00;98324.88;5071598;28;20043;-38
2023/11/04 00:31:33;;;;;;;0.00;0.00;;;;;;;8.65;100.00;98338.13;5071432;28;20077;-39
2023/11/04 00:33:59;;;;;;;0.00;0.00;;;;;;;8.66;100.00;98337.13;5071296;28;20127;-39
2023/11/04 00:36:24;;;;;;;0.00;0.00;;;;;;;8.64;100.00;98341.06;5071217;28;20151;-39
2023/11/04 00:38:50;;;;;;;0.00;0.00;;;;;;;8.64;100.00;98341.06;5071235;28;20124;-39
2023/11/04 00:41:19;;;;;;;0.00;0.00;;;;;;;8.64;100.00;98341.06;5066348;28;20036;-39
2023/11/04 00:43:45;;;;;;;0.00;0.00;;;;;;;8.66;100.00;98347.00;5057798;28;20090;-39
2023/11/04 00:46:10;;;;;;;0.00;0.00;;;;;;;8.70;100.00;98349.00;5065972;28;20328;-39
2023/11/04 00:48:35;;;;;;;0.00;0.00;;;;;;;8.71;100.00;98345.25;5072454;28;20028;-40
2023/11/04 00:51:01;;;;;;;0.00;0.00;;;;;;;8.71;100.00;98349.81;5066145;28;20115;-38
2023/11/04 00:53:26;;;;;;;0.00;0.00;;;;;;;8.65;100.00;98354.22;5052137;28;20055;-39
2023/11/04 00:55:51;;;;;;;0.00;0.00;;;;;;;8.67;100.00;98354.00;5056233;28;20035;-39
2023/11/04 00:58:17;;;;;;;0.00;0.00;;;;;;;8.69;100.00;98354.56;5070452;28;20028;-39
2023/11/04 01:00:42;;;;;;;0.00;0.00;;;;;;;8.71;100.00;98352.50;5069795;28;20031;-38
2023/11/04 01:03:07;;;;;;;0.00;0.00;;;;;;;8.72;100.00;98354.94;5070767;28;20086;-38
2023/11/04 01:05:33;;;;;;;0.00;0.00;;;;;;;8.76;100.00;98358.78;5070717;28;20071;-38
2023/11/04 01:07:59;;;;;;;0.00;0.00;;;;;;;8.78;100.00;98353.22;5058123;28;20037;-38
2023/11/04 01:10:24;;;;;;;0.00;0.00;;;;;;;8.78;100.00;98358.56;5070909;28;20439;-38
2023/11/04 01:12:50;;;;;;;0.00;0.00;;;;;;;8.79;100.00;98361.03;5064177;28;20033;-38
2023/11/04 01:15:15;;;;;;;0.00;0.00;;;;;;;8.83;100.00;98366.75;5053105;28;20036;-38
2023/11/04 01:17:41;;;;;;;0.00;0.00;;;;;;;8.84;100.00;98352.28;5057535;28;20031;-38
2023/11/04 01:20:07;;;;;;;0.00;0.00;;;;;;;8.86;100.00;98344.00;5073100;28;20115;-39
2023/11/04 01:22:33;;;;;;;0.00;0.00;;;;;;;8.82;100.00;98359.75;5073377;28;20097;-38
2023/11/04 01:24:59;;;;;;;0.00;0.00;;;;;;;8.82;100.00;98357.06;5055381;28;20025;-37
2023/11/04 01:27:24;;;;;;;0.00;0.00;;;;;;;8.83;100.00;98349.84;5066042;28;20421;-40
2023/11/04 01:29:49;;;;;;;0.00;0.00;;;;;;;8.82;100.00;98342.81;5063539;28;20434;-37
2023/11/04 01:32:15;;;;;;;0.00;0.00;;;;;;;8.82;100.00;98337.47;5057297;28;20609;-39
2023/11/04 01:34:40;;;;;;;0.00;0.00;;;;;;;8.79;100.00;98344.94;5074206;28;20071;-37
2023/11/04 01:37:06;;;;;;;0.00;0.00;;;;;;;8.85;100.00;98342.38;5077317;28;20067;-39
2023/11/04 01:39:33;;;;;;;0.00;0.00;;;;;;;8.83;100.00;98339.09;5079166;28;20648;-39
2023/11/04 01:42:04;;;;;;;0.00;0.00;;;;;;;8.85;100.00;98343.19;5078460;28;20074;-39
2023/11/04 01:44:30;;;;;;;0.00;0.00;;;;;;;8.82;100.00;98343.66;5078271;28;20037;-37
2023/11/04 01:46:55;;;;;;;0.00;0.00;;;;;;;8.84;100.00;98340.72;5078909;28;20025;-38
2023/11/04 01:49:21;;;;;;;0.00;0.00;;;;;;;8.87;100.00;98340.25;5076161;28;20073;-39
2023/11/04 01:51:46;;;;;;;0.00;0.00;;;;;;;8.87;100.00;98337.59;5061727;28;20163;-40
2023/11/04 01:54:11;;;;;;;0.00;0.00;;;;;;;8.85;100.00;98331.66;5069061;28;20064;-38
2023/11/04 01:56:39;;;;;;;0.00;0.00;;;;;;;8.83;100.00;98350.66;5070552;28;20522;-38
2023/11/04 01:59:06;;;;;;;0.00;0.00;;;;;;;8.81;100.00;98341.19;5054284;28;20403;-38
2023/11/04 02:01:34;;;;;;;0.00;0.00;;;;;;;8.81;100.00;98347.38;5054683;28;20060;-38
2023/11/04 02:04:01;;;;;;;0.00;0.00;;;;;;;8.79;100.00;98342.25;5053425;28;20040;-39
2023/11/04 02:06:26;;;;;;;0.00;0.00;;;;;;;8.78;100.00;98350.53;5058297;28;20025;-39
2023/11/04 02:08:54;;;;;;;0.00;0.00;;;;;;;8.76;100.00;98333.84;5065835;28;20029;-39
2023/11/04 02:11:20;;;;;;;0.00;0.00;;;;;;;8.82;100.00;98343.66;5064925;28;20028;-39
2023/11/04 02:13:45;;;;;;;0.00;0.00;;;;;;;8.80;100.00;98345.75;5053390;28;20446;-39
2023/11/04 02:16:11;;;;;;;0.00;0.00;;;;;;;8.82;100.00;98343.66;5055437;28;20136;-38
2023/11/04 02:18:36;;;;;;;0.00;0.00;;;;;;;8.81;100.00;98343.88;5060954;28;20029;-39
2023/11/04 02:21:02;;;;;;;0.00;0.00;;;;;;;8.77;100.00;98347.03;5062638;28;20256;-38
2023/11/04 02:23:27;;;;;;;0.00;0.00;;;;;;;8.82;100.00;98357.06;5070322;28;20020;-38
2023/11/04 02:25:53;;;;;;;0.00;0.00;;;;;;;8.86;100.00;98349.38;5066315;28;20121;-38
2023/11/04 02:28:19;;;;;;;0.00;0.00;;;;;;;8.85;100.00;98339.69;5058925;28;20025;-43
2023/11/04 02:30:44;;;;;;;0.00;0.00;;;;;;;8.69;100.00;98339.31;5053439;28;20021;-46
2023/11/04 02:33:09;;;;;;;0.00;0.00;;;;;;;8.67;100.00;98345.97;5053975;28;20033;-45
2023/11/04 02:35:35;;;;;;;0.00;0.00;;;;;;;8.62;100.00;98343.16;5065802;28;20044;-41
2023/11/04 02:38:01;;;;;;;0.00;0.00;;;;;;;8.54;100.00;98336.25;5076604;28;20104;-41
2023/11/04 02:40:27;;;;;;;0.00;0.00;;;;;;;8.53;100.00;98340.81;5078790;28;20059;-40
2023/11/04 02:42:52;;;;;;;0.00;0.00;;;;;;;8.46;100.00;98345.47;5064120;28;20033;-39
2023/11/04 02:45:17;;;;;;;0.00;0.00;;;;;;;8.41;100.00;98337.28;5059280;28;20044;-38
2023/11/04 02:47:43;;;;;;;0.00;0.00;;;;;;;8.44;100.00;98339.50;5053514;28;20387;-36
2023/11/04 02:50:08;;;;;;;0.00;0.00;;;;;;;8.45;100.00;98349.19;5065048;28;20052;-37
2023/11/04 02:52:34;;;;;;;0.00;0.00;;;;;;;8.39;100.00;98339.38;5072959;28;20364;-39
2023/11/04 02:54:59;;;;;;;0.00;0.00;;;;;;;8.36;100.00;98329.88;5068175;28;20031;-39
2023/11/04 02:57:24;;;;;;;0.00;0.00;;;;;;;8.30;100.00;98333.50;5066958;28;20572;-38
2023/11/04 02:59:50;;;;;;;0.00;0.00;;;;;;;8.28;100.00;98327.53;5058880;28;20365;-39
2023/11/04 03:02:16;;;;;;;0.00;0.00;;;;;;;8.28;100.00;98327.53;5053633;28;20025;-38
2023/11/04 03:04:41;;;;;;;0.00;0.00;;;;;;;8.24;100.00;98338.94;5053406;28;20624;-37
2023/11/04 03:07:06;;;;;;;0.00;0.00;;;;;;;8.26;100.00;98320.78;5054621;28;20107;-40
2023/11/04 03:09:32;;;;;;;0.00;0.00;;;;;;;8.28;100.00;98327.53;5061014;28;20141;-40
2023/11/04 03:11:58;;;;;;;0.00;0.00;;;;;;;8.30;100.00;98317.41;5053928;28;20468;-36
2023/11/04 03:14:24;;;;;;;0.00;0.00;;;;;;;8.31;100.00;98315.56;5052721;28;20028;-37
2023/11/04 03:16:51;;;;;;;0.00;0.00;;;;;;;8.27;100.00;98320.56;5072724;28;20043;-38
2023/11/04 03:19:17;;;;;;;0.00;0.00;;;;;;;8.28;100.00;98311.47;5072799;28;20035;-41
2023/11/04 03:21:45;;;;;;;0.00;0.00;;;;;;;8.30;100.00;98308.56;5072847;28;20032;-39
2023/11/04 03:24:14;;;;;;;0.00;0.00;;;;;;;8.33;100.00;98308.91;5070570;28;20054;-38
2023/11/04 03:26:39;;;;;;;0.00;0.00;;;;;;;8.29;100.00;98312.28;5061833;28;20044;-37
2023/11/04 03:29:04;;;;;;;0.00;0.00;;;;;;;8.30;100.00;98319.28;5052842;28;20515;-38
2023/11/04 03:31:32;;;;;;;0.00;0.00;;;;;;;8.33;100.00;98310.78;5052423;28;20051;-38
2023/11/04 03:33:59;;;;;;;0.00;0.00;;;;;;;8.39;100.00;98311.72;5061746;28;20162;-38
2023/11/04 03:36:27;;;;;;;0.00;0.00;;;;;;;8.42;100.00;98305.94;5062663;28;20115;-38
2023/11/04 03:38:52;;;;;;;0.00;0.00;;;;;;;8.39;100.00;98309.88;5058879;28;20029;-38
2023/11/04 03:41:18;;;;;;;0.00;0.00;;;;;;;8.44;100.00;98304.66;5052099;28;20029;-37
2023/11/04 03:43:43;;;;;;;0.00;0.00;;;;;;;8.47;100.00;98304.19;5052125;28;20115;-39
2023/11/04 03:46:09;;;;;;;0.00;0.00;;;;;;;8.52;100.00;98307.00;5056147;28;20024;-39
2023/11/04 03:48:35;;;;;;;0.00;0.00;;;;;;;8.55;100.00;98300.34;5072916;28;20074;-39
2023/11/04 03:51:00;;;;;;;0.00;0.00;;;;;;;8.59;100.00;98296.19;5059525;28;20033;-39
2023/11/04 03:53:25;;;;;;;0.00;0.00;;;;;;;8.56;100.00;98289.41;5066320;28;20032;-38
2023/11/04 03:55:51;;;;;;;0.00;0.00;;;;;;;8.61;100.00;98280.69;5072271;28;20028;-38
2023/11/04 03:58:16;;;;;;;0.00;0.00;;;;;;;8.61;100.00;98275.31;5069865;28;20410;-39
2023/11/04 04:00:41;;;;;;;0.00;0.00;;;;;;;8.61;100.00;98282.53;5065760;28;20032;-38
2023/11/04 04:03:07;;;;;;;0.00;0.00;;;;;;;8.57;100.00;98279.50;5059808;28;20116;-38
2023/11/04 04:05:33;;;;;;;0.00;0.00;;;;;;;8.56;100.00;98267.97;5071875;28;20074;-38
2023/11/04 04:07:58;;;;;;;0.00;0.00;;;;;;;8.57;100.00;98264.22;5061574;28;20075;-39
2023/11/04 04:10:25;;;;;;;0.00;0.00;;;;;;;8.57;100.00;98263.41;5052010;28;20040;-38
2023/11/04 04:12:51;;;;;;;0.00;0.00;;;;;;;8.58;100.00;98262.34;5052261;28;20017;-38
2023/11/04 04:15:17;;;;;;;0.00;0.00;;;;;;;8.57;100.00;98261.53;5051809;28;20082;-39
2023/11/04 04:17:42;;;;;;;0.00;0.00;;;;;;;8.54;100.00;98256.66;5051572;28;20033;-39
2023/11/04 04:20:11;;;;;;;0.00;0.00;;;;;;;8.54;100.00;98259.34;5059305;28;20029;-38
2023/11/04 04:22:37;;;;;;;0.00;0.00;;;;;;;8.55;100.00;98255.59;5071692;28;20025;-39
2023/11/04 04:25:02;;;;;;;0.00;0.00;;;;;;;8.53;100.00;98254.19;5071215;28;20107;-39
2023/11/04 04:27:28;;;;;;;0.00;0.00;;;;;;;8.51;100.00;98261.69;5060847;28;20456;-38
2023/11/04 04:29:53;;;;;;;0.00;0.00;;;;;;;8.52;100.00;98255.25;5051503;28;20029;-39
2023/11/04 04:32:18;;;;;;;0.00;0.00;;;;;;;8.47;100.00;98250.56;5051829;28;20079;-39
2023/11/04 04:34:45;;;;;;;0.00;0.00;;;;;;;8.48;100.00;98262.13;5062795;28;20036;-39
2023/11/04 04:37:10;;;;;;;0.00;0.00;;;;;;;8.52;100.00;98253.38;5066375;28;20025;-37
2023/11/04 04:39:36;;;;;;;0.00;0.00;;;;;;;8.56;100.00;98254.56;5059320;28;20485;-40
2023/11/04 04:42:02;;;;;;;0.00;0.00;;;;;;;8.54;100.00;98240.56;5071013;28;20060;-39
2023/11/04 04:44:27;;;;;;;0.00;0.00;;;;;;;8.54;100.00;98259.34;5071533;28;20059;-39
2023/11/04 04:46:53;;;;;;;0.00;0.00;;;;;;;8.57;100.00;98241.97;5069929;28;20027;-39
2023/11/04 04:49:18;;;;;;;0.00;0.00;;;;;;;8.53;100.00;98230.91;5058835;28;20033;-38
2023/11/04 04:51:43;;;;;;;0.00;0.00;;;;;;;8.54;100.00;98235.22;5051308;28;20025;-38
2023/11/04 04:54:09;;;;;;;0.00;0.00;;;;;;;8.51;100.00;98224.94;5068711;28;20036;-38
2023/11/04 04:56:34;;;;;;;0.00;0.00;;;;;;;8.50;100.00;98226.00;5055484;28;20025;-39
2023/11/04 04:58:59;;;;;;;0.00;0.00;;;;;;;8.46;100.00;98219.47;5060415;28;20043;-39
2023/11/04 05:01:25;;;;;;;0.00;0.00;;;;;;;8.47;100.00;98210.38;5071344;28;20036;-39
2023/11/04 05:03:51;;;;;;;0.00;0.00;;;;;;;8.45;100.00;98230.41;5052454;28;20130;-38
2023/11/04 05:06:16;;;;;;;0.00;0.00;;;;;;;8.37;100.00;98218.13;5047845;28;20495;-39
2023/11/04 05:08:41;;;;;;;0.00;0.00;;;;;;;8.39;100.00;98209.88;5054120;28;20037;-39
2023/11/04 05:11:08;;;;;;;0.00;0.00;;;;;;;8.42;100.00;98210.25;5064313;28;20179;-36
2023/11/04 05:13:35;;;;;;;0.00;0.00;;;;;;;8.35;100.00;98196.13;5059315;28;20052;-39
2023/11/04 05:16:00;;;;;;;0.00;0.00;;;;;;;8.32;100.00;98193.91;5061812;28;20551;-40
2023/11/04 05:18:26;;;;;;;0.00;0.00;;;;;;;8.28;100.00;98193.56;5045704;28;20040;-38
2023/11/04 05:20:52;;;;;;;0.00;0.00;;;;;;;8.32;100.00;98194.75;5060471;28;20051;-39
2023/11/04 05:23:18;;;;;;;0.00;0.00;;;;;;;8.30;100.00;98193.34;5051634;28;20033;-39
2023/11/04 05:25:44;;;;;;;0.00;0.00;;;;;;;8.28;100.00;98196.25;5051832;28;20037;-39
2023/11/04 05:28:09;;;;;;;0.00;0.00;;;;;;;8.34;100.00;98197.16;5052169;28;20037;-39
2023/11/04 05:30:35;;;;;;;0.00;0.00;;;;;;;8.29;100.00;98189.84;5053329;28;20113;-39
2023/11/04 05:33:00;;;;;;;0.00;0.00;;;;;;;8.34;100.00;98195.31;5057176;28;20084;-39
2023/11/04 05:35:26;;;;;;;0.00;0.00;;;;;;;8.32;100.00;98191.22;5053530;28;20049;-39
2023/11/04 05:37:52;;;;;;;0.00;0.00;;;;;;;8.33;100.00;98180.28;5052919;28;20086;-40
2023/11/04 05:40:17;;;;;;;0.00;0.00;;;;;;;8.30;100.00;98179.94;5051241;28;20036;-38
2023/11/04 05:42:42;;;;;;;0.00;0.00;;;;;;;8.31;100.00;98168.97;5060694;28;20038;-40
2023/11/04 05:45:08;;;;;;;0.00;0.00;;;;;;;8.23;100.00;98166.66;5053038;28;20024;-40
2023/11/04 05:47:34;;;;;;;0.00;0.00;;;;;;;8.25;100.00;98166.41;5067378;28;20040;-38
2023/11/04 05:50:00;;;;;;;0.00;0.00;;;;;;;8.26;100.00;98146.59;5068838;28;20159;-38
2023/11/04 05:52:25;;;;;;;0.00;0.00;;;;;;;8.26;100.00;98147.41;5050726;28;20072;-38
2023/11/04 05:54:51;;;;;;;0.00;0.00;;;;;;;8.29;100.00;98151.50;5052859;28;20060;-39
2023/11/04 05:57:16;;;;;;;0.00;0.00;;;;;;;8.27;100.00;98156.28;5052708;28;20524;-39
2023/11/04 05:59:43;;;;;;;0.00;0.00;;;;;;;8.26;100.00;98150.09;5064832;28;20040;-39
2023/11/04 06:02:09;;;;;;;0.00;0.00;;;;;;;8.37;100.00;98143.09;5062979;28;20493;-40
2023/11/04 06:04:35;;;;;;;0.00;0.00;;;;;;;8.33;100.00;98139.28;5055588;28;20041;-40
2023/11/04 06:07:00;;;;;;;0.00;0.00;;;;;;;8.34;100.00;98139.03;5061835;28;20024;-39
2023/11/04 06:09:26;;;;;;;0.00;0.00;;;;;;;8.33;100.00;98131.22;5057267;28;20029;-38
2023/11/04 06:11:51;;;;;;;0.00;0.00;;;;;;;8.32;100.00;98124.22;5059667;28;20513;-39
2023/11/04 06:14:16;;;;;;;0.00;0.00;;;;;;;8.30;100.00;98112.94;5065650;28;20036;-39
2023/11/04 06:16:43;;;;;;;0.00;0.00;;;;;;;8.28;100.00;98115.03;5064218;28;20033;-39
2023/11/04 06:19:08;;;;;;;0.00;0.00;;;;;;;8.26;100.00;98109.09;5059338;28;20033;-39
2023/11/04 06:21:34;;;;;;;0.00;0.00;;;;;;;8.25;100.00;98118.19;5055789;28;20499;-39
2023/11/04 06:23:59;;;;;;;0.00;0.00;;;;;;;8.27;100.00;98116.91;5060214;28;20017;-38
2023/11/04 06:26:24;;;;;;;0.00;0.00;;;;;;;8.23;100.00;98114.94;5060849;28;20446;-39
2023/11/04 06:28:50;;;;;;;0.00;0.00;;;;;;;8.25;100.00;98108.28;5065309;28;20449;-38
2023/11/04 06:31:16;;;;;;;0.00;0.00;;;;;;;8.24;100.00;98101.31;5055326;28;20033;-39
2023/11/04 06:33:42;;;;;;;0.00;0.00;;;;;;;8.15;100.00;98097.34;5062671;28;20117;-37
2023/11/04 06:36:08;;;;;;;0.00;0.00;;;;;;;8.14;100.00;98101.06;5059663;28;20123;-39
2023/11/04 06:38:33;;;;;;;0.00;0.00;;;;;;;8.18;100.00;98091.50;5071141;28;20024;-41
2023/11/04 06:40:59;;;;;;;0.00;0.00;;;;;;;8.17;100.00;98092.56;5061621;28;20030;-39
2023/11/04 06:43:27;;;;;;;0.00;0.00;;;;;;;8.21;100.00;98107.09;5059269;28;20080;-40
2023/11/04 06:45:53;;;;;;;0.00;0.00;;;;;;;8.21;100.00;98099.06;5052717;28;20028;-41
2023/11/04 06:48:18;;;;;;;0.00;0.00;;;;;;;8.29;100.00;98097.91;5069447;28;20021;-38
2023/11/04 06:50:44;;;;;;;0.00;0.00;;;;;;;8.25;100.00;98110.16;5070441;28;20533;-41
2023/11/04 06:53:09;;;;;;;0.00;0.00;;;;;;;8.31;100.00;98088.59;5065836;28;20520;-39
2023/11/04 06:55:34;;;;;;;0.00;0.00;;;;;;;8.34;100.00;98095.34;5051467;28;20033;-38
2023/11/04 06:58:00;;;;;;;0.00;0.00;;;;;;;8.33;100.00;98093.72;5067985;28;20208;-40
2023/11/04 07:00:25;;;;;;;0.00;0.00;;;;;;;8.30;100.00;98105.72;5070590;28;20079;-40
2023/11/04 07:02:50;;;;;;;0.00;0.00;;;;;;;8.33;100.00;98099.06;5061750;28;20060;-38
2023/11/04 07:05:16;;;;;;;0.00;0.00;;;;;;;8.35;100.00;98092.44;5055616;28;20045;-40
2023/11/04 07:07:42;;;;;;;0.00;0.00;;;;;;;8.35;100.00;98086.25;5067195;28;20067;-40
2023/11/04 07:10:09;;;;;;;0.00;0.00;;;;;;;8.42;100.00;98075.44;5062473;28;20184;-39
2023/11/04 07:12:35;;;;;;;0.00;0.00;;;;;;;8.47;100.00;98078.22;5061378;28;20108;-40
2023/11/04 07:15:06;;;;;;;0.00;0.00;;;;;;;8.45;100.00;98070.44;5060508;28;20033;-39
2023/11/04 07:17:31;;;;;;;0.00;0.00;;;;;;;8.42;100.00;98070.88;5057179;28;20055;-39
2023/11/04 07:19:57;;;;;;;0.00;0.00;;;;;;;8.42;100.00;98062.84;5059335;28;20039;-39
2023/11/04 07:22:23;;;;;;;0.00;0.00;;;;;;;8.48;100.00;98058.44;5061312;28;20025;-40
2023/11/04 07:24:49;;;;;;;0.00;0.00;;;;;;;8.41;100.00;98058.53;5055256;28;20036;-39
2023/11/04 07:27:14;;;;;;;0.00;0.00;;;;;;;8.48;100.00;98043.16;5066778;28;20025;-39
2023/11/04 07:29:40;;;;;;;0.00;0.00;;;;;;;8.53;100.00;98035.22;5058350;28;20048;-39
2023/11/04 07:32:06;;;;;;;0.00;0.00;;;;;;;8.55;100.00;98029.59;5067293;28;20039;-39
2023/11/04 07:34:32;;;;;;;0.00;0.00;;;;;;;8.57;100.00;98028.31;5065078;28;20048;-39
2023/11/04 07:36:57;;;;;;;0.00;0.00;;;;;;;8.60;100.00;98036.94;5061143;28;20020;-38
2023/11/04 07:39:23;;;;;;;0.00;0.00;;;;;;;8.51;100.00;98037.31;5057323;28;20036;-39
2023/11/04 07:41:48;;;;;;;0.00;0.00;;;;;;;8.50;100.00;98033.00;5055225;28;20502;-38
2023/11/04 07:44:14;;;;;;;0.00;0.00;;;;;;;8.48;100.00;98024.41;5057280;28;20021;-38
2023/11/04 07:46:40;;;;;;;0.00;0.00;;;;;;;8.50;100.00;98019.59;5073027;28;20110;-40
2023/11/04 07:49:07;;;;;;;0.00;0.00;;;;;;;8.54;100.00;98015.41;5068608;28;20031;-38
2023/11/04 07:51:32;;;;;;;0.00;0.00;;;;;;;8.55;100.00;98011.66;5060042;28;20035;-41
2023/11/04 07:53:58;;;;;;;0.00;0.00;;;;;;;8.57;100.00;98000.69;5067014;28;20485;-39
2023/11/04 07:56:23;;;;;;;0.00;0.00;;;;;;;8.54;100.00;97993.13;5064056;28;20386;-39
2023/11/04 07:58:48;;;;;;;0.00;0.00;;;;;;;8.53;100.00;98003.06;5064023;28;20056;-39
2023/11/04 08:01:17;;;;;;;0.00;0.00;;;;;;;8.60;100.00;97992.19;5062034;28;20088;-39
2023/11/04 08:03:43;;;;;;;0.00;0.00;;;;;;;8.58;100.00;97978.19;5057339;28;20048;-38
2023/11/04 08:06:08;;;;;;;0.00;0.00;;;;;;;8.60;100.00;97975.28;5066219;28;20105;-39
2023/11/04 08:08:34;;;;;;;0.00;0.00;;;;;;;8.68;100.00;97977.56;5056922;28;20032;-38
2023/11/04 08:10:59;;;;;;;0.00;0.00;;;;;;;8.63;100.00;97972.94;5052217;28;20039;-38
2023/11/04 08:13:24;;;;;;;0.00;0.00;;;;;;;8.70;100.00;97962.06;5052551;28;20025;-39
2023/11/04 08:15:49;;;;;;;0.00;0.00;;;;;;;8.68;100.00;97961.50;5052574;28;20108;-39
2023/11/04 08:18:15;;;;;;;0.00;0.00;;;;;;;8.71;100.00;97959.13;5053426;28;20021;-40
2023/11/04 08:20:42;;;;;;;0.00;0.00;;;;;;;8.71;100.00;97955.66;5055024;28;20025;-40
2023/11/04 08:23:07;;;;;;;0.00;0.00;;;;;;;8.71;100.00;97940.38;5055597;28;20049;-40
2023/11/04 08:25:33;;;;;;;0.00;0.00;;;;;;;8.56;100.00;97932.06;5054761;28;20527;-39
2023/11/04 08:27:58;;;;;;;0.00;0.00;;;;;;;8.64;100.00;97933.56;5055270;28;20468;-38
2023/11/04 08:30:24;;;;;;;0.00;0.00;;;;;;;8.72;100.00;97917.06;5054439;28;20112;-40
2023/11/04 08:32:50;;;;;;;0.00;0.00;;;;;;;8.80;100.00;97916.66;5062008;28;20144;-39
2023/11/04 08:35:15;;;;;;;0.00;0.00;;;;;;;8.75;100.00;97909.34;5074950;28;20100;-39
2023/11/04 08:37:41;;;;;;;0.00;0.00;;;;;;;8.82;100.00;97889.59;5074869;28;20051;-39
2023/11/04 08:40:07;;;;;;;0.00;0.00;;;;;;;8.79;100.00;97896.25;5074046;28;20020;-38
2023/11/04 08:42:33;;;;;;;0.00;0.00;;;;;;;8.84;100.00;97899.03;5074249;28;20028;-39
2023/11/04 08:44:58;;;;;;;0.00;0.00;;;;;;;8.84;100.00;97880.25;5073750;28;20492;-38
2023/11/04 08:47:24;;;;;;;0.00;0.00;;;;;;;8.86;100.00;97886.19;5073212;28;20021;-37
2023/11/04 08:49:49;;;;;;;0.00;0.00;;;;;;;8.99;100.00;97879.69;5074560;28;20024;-39
2023/11/04 08:52:15;;;;;;;0.00;0.00;;;;;;;9.10;100.00;97883.34;5072349;28;20066;-40
2023/11/04 08:54:40;;;;;;;0.00;0.00;;;;;;;9.08;100.00;97899.69;5071096;28;20021;-38
2023/11/04 08:57:06;;;;;;;0.00;0.00;;;;;;;9.14;100.00;97879.94;5071250;28;20108;-38
2023/11/04 08:59:31;;;;;;;0.00;0.00;;;;;;;9.23;100.00;97867.72;5071208;28;20035;-39
2023/11/04 09:01:56;;;;;;;0.00;0.00;;;;;;;9.20;100.00;97862.03;5071018;28;20039;-38
2023/11/04 09:04:22;;;;;;;0.00;0.00;;;;;;;9.34;100.00;97849.06;5070826;28;20044;-38
2023/11/04 09:06:48;;;;;;;0.00;0.00;;;;;;;9.35;100.00;97848.84;5071152;28;20044;-38
2023/11/04 09:09:13;;;;;;;0.00;0.00;;;;;;;9.45;100.00;97846.31;5071011;28;20105;-38
2023/11/04 09:11:39;;;;;;;0.00;0.00;;;;;;;9.51;100.00;97846.38;5071185;28;20028;-38
2023/11/04 09:14:04;;;;;;;0.00;0.00;;;;;;;9.55;100.00;97834.88;5070748;28;20020;-39
2023/11/04 09:16:33;;;;;;;0.00;0.00;;;;;;;9.52;100.00;97832.69;5070656;28;20025;-38
2023/11/04 09:19:00;;;;;;;0.00;0.00;;;;;;;9.48;100.00;97812.78;5069024;28;20501;-39
2023/11/04 09:21:25;;;;;;;0.00;0.00;;;;;;;9.41;100.00;97821.00;5071263;28;20025;-39
2023/11/04 09:23:51;;;;;;;0.00;0.00;;;;;;;9.57;100.00;97815.84;5070958;28;20031;-39
2023/11/04 09:26:17;;;;;;;0.00;0.00;;;;;;;9.59;100.00;97811.03;5071298;28;20020;-39
2023/11/04 09:28:43;;;;;;;0.00;0.00;;;;;;;9.56;100.00;97803.47;5071685;28;20042;-39
2023/11/04 09:31:08;;;;;;;0.00;0.00;;;;;;;9.65;100.00;97812.72;5071381;28;20077;-38
2023/11/04 09:33:35;;;;;;;0.00;0.00;;;;;;;9.56;100.00;97792.75;5070817;28;20039;-37
2023/11/04 09:36:00;;;;;;;0.00;0.00;;;;;;;9.61;100.00;97792.78;5068923;28;20101;-40
2023/11/04 09:38:26;;;;;;;0.00;0.00;;;;;;;9.45;100.00;97773.81;5069874;28;20481;-39
2023/11/04 09:40:51;;;;;;;0.00;0.00;;;;;;;9.50;100.00;97781.09;5070899;28;20029;-38
2023/11/04 09:43:17;;;;;;;0.00;0.00;;;;;;;9.51;100.00;97782.75;5070487;28;20029;-40
2023/11/04 09:45:44;;;;;;;0.00;0.00;;;;;;;9.49;100.00;97778.69;5070366;28;20115;-39
2023/11/04 09:48:09;;;;;;;0.00;0.00;;;;;;;9.37;100.00;97766.22;5069179;28;20028;-39
2023/11/04 09:50:35;;;;;;;0.00;0.00;;;;;;;9.39;100.00;97764.06;5070906;28;20502;-39
2023/11/04 09:53:06;;;;;;;0.00;0.00;;;;;;;9.37;100.00;97757.31;5070844;28;20024;-39
2023/11/04 09:55:32;;;;;;;0.00;0.00;;;;;;;9.42;100.00;97749.34;5071062;28;20058;-39
2023/11/04 09:57:58;;;;;;;0.00;0.00;;;;;;;9.42;100.00;97754.69;5073353;28;20024;-40
2023/11/04 10:00:23;;;;;;;0.00;0.00;;;;;;;9.43;100.00;97746.41;5074589;28;20048;-39
2023/11/04 10:02:49;;;;;;;0.00;0.00;;;;;;;9.51;100.00;97744.34;5074131;28;20028;-40
2023/11/04 10:05:14;;;;;;;0.00;0.00;;;;;;;9.42;100.00;97725.97;5074207;28;20094;-38
2023/11/04 10:07:40;;;;;;;0.00;0.00;;;;;;;9.33;100.00;97724.81;5057261;28;20387;-39
2023/11/04 10:10:07;;;;;;;0.00;0.00;;;;;;;9.47;100.00;97711.81;5074896;28;20060;-40
2023/11/04 10:12:32;;;;;;;0.00;0.00;;;;;;;9.40;100.00;97729.97;5076041;28;20036;-40
2023/11/04 10:14:58;;;;;;;0.00;0.00;;;;;;;9.35;100.00;97709.28;5074977;28;20032;-39
2023/11/04 10:17:23;;;;;;;0.00;0.00;;;;;;;9.34;100.00;97696.91;5074146;28;20390;-39
2023/11/04 10:19:49;;;;;;;0.00;0.00;;;;;;;9.32;100.00;97684.78;5073299;28;20404;-40
2023/11/04 10:22:14;;;;;;;0.00;0.00;;;;;;;9.28;100.00;97681.00;5074692;28;20025;-40
2023/11/04 10:24:40;;;;;;;0.00;0.00;;;;;;;9.27;100.00;97674.84;5072722;28;20367;-38
2023/11/04 10:27:05;;;;;;;0.00;0.00;;;;;;;9.27;100.00;97672.16;5073780;28;20395;-39
2023/11/04 10:29:31;;;;;;;0.00;0.00;;;;;;;9.36;100.00;97669.81;5074098;28;20028;-39
2023/11/04 10:32:01;;;;;;;0.00;0.00;;;;;;;9.27;100.00;97657.91;5073934;28;20506;-38
2023/11/04 10:34:30;;;;;;;0.00;0.00;;;;;;;9.30;100.00;97655.53;5073509;28;20025;-37
2023/11/04 10:36:56;;;;;;;0.00;0.00;;;;;;;9.35;100.00;97633.31;5075206;28;20032;-38
2023/11/04 10:39:23;;;;;;;0.00;0.00;;;;;;;9.37;100.00;97632.00;5075686;28;20074;-40
2023/11/04 10:42:19;;;;;;;0.00;0.00;;;;;;;9.35;100.00;97622.59;5075556;28;20086;-38
2023/11/04 10:44:50;;;;;;;0.00;0.00;;;;;;;9.32;100.00;97615.84;5060620;28;20067;-39
2023/11/04 10:47:40;;;;;;;0.00;0.00;;;;;;;9.30;100.00;97609.13;5072262;28;20056;-40
2023/11/04 10:50:14;;;;;;;0.00;0.00;;;;;;;9.32;100.00;97596.22;5055766;28;20024;-39
2023/11/04 10:53:00;;;;;;;0.00;0.00;;;;;;;9.36;100.00;97592.81;5073666;28;20387;-39
2023/11/04 10:55:29;;;;;;;0.00;0.00;;;;;;;9.29;100.00;97592.19;5073085;28;20029;-39
2023/11/04 10:58:00;;;;;;;0.00;0.00;;;;;;;9.23;100.00;97582.47;5072694;28;20031;-38
2023/11/04 11:00:26;;;;;;;0.00;0.00;;;;;;;9.19;100.00;97567.97;5072205;28;20071;-39
2023/11/04 11:02:52;;;;;;;0.00;0.00;;;;;;;9.14;100.00;97567.91;5054868;28;20471;-39
2023/11/04 11:05:22;;;;;;;0.00;0.00;;;;;;;9.07;100.00;97561.91;5072026;28;20048;-38
2023/11/04 11:07:48;;;;;;;0.00;0.00;;;;;;;8.81;100.00;97553.59;5071419;28;20037;-39
2023/11/04 11:10:15;;;;;;;0.00;0.00;;;;;;;8.72;100.00;97552.44;5072262;28;20061;-39
2023/11/04 11:12:46;;;;;;;0.00;0.00;;;;;;;8.54;100.00;97542.84;5071501;28;20036;-39
2023/11/04 11:15:12;;;;;;;0.00;0.00;;;;;;;8.43;100.00;97541.91;5065961;28;20036;-39
2023/11/04 11:17:38;;;;;;;0.00;0.00;;;;;;;8.33;100.00;97539.88;5054509;28;20040;-37
2023/11/04 11:20:04;;;;;;;0.00;0.00;;;;;;;8.24;100.00;97517.25;5058599;28;20017;-37
2023/11/04 11:22:30;;;;;;;0.00;0.00;;;;;;;8.17;100.00;97511.25;5065414;28;20036;-36
2023/11/04 11:24:56;;;;;;;0.00;0.00;;;;;;;8.22;100.00;97502.47;5072951;28;20025;-37
2023/11/04 11:27:22;;;;;;;0.00;0.00;;;;;;;8.16;100.00;97498.09;5074321;28;20466;-36
2023/11/04 11:29:48;;;;;;;0.00;0.00;;;;;;;8.12;100.00;97497.81;5071503;28;20058;-37